EDDGLSZH

Guest
Details From EDDG - Muenster Osnabrueck
To LSZH - Zurich
Flight Number -
Tags Generated
Created
Modified
Stats Distance 283 nm / 523 km
Max Altitude 0 ft / 0 m
Waypoints 3
Social Downloads 0
Likes 0
Share VATSIM

Download

Looking for another format? Having issues loading an existing format? Contact us
Advertisement - Login to hide

Notes

Generated

Route

EDDG R2278 LSZH

ID Type Via Altitude Latitude Longitude Leg Dist Tot Dist Heading (true) Name
O EDDG APT - 0 ft / 0 m 52.13151˚ 7.67006˚ - 0 nm - -
R2278 FIX - 0 ft / 0 m 47.48209˚ 8.53607˚ 281 nm 281 nm 173° / 173° -
O LSZH APT - 0 ft / 0 m 47.45894˚ 8.53748˚ 1 nm 282 nm 178° / 178° -

Altitude Profile

Advertisement - Login to hide

Weather


0- 5 10 15 20 25 30 35+ Temperature / ° C

Clouds and Precipitation
Forecast for 2018-05-26 12:00 UTC. Updated 5 hours ago

Ground ~20,000 ft ~40,000 ft Winds

EDDG

Details ICAO EDDG (FMO)
Name Muenster Osnabrueck
Region Germany - Civil
Timezone Europe/Berlin (UTC+2.0)
Stats Elevation 159 ft / 48 m (AMSL)
Location 52.134580° 7.684669°
Runways 1
Magnetic Variation 2.130° E

METAR

EDDG 261620Z 06005KT 350V140 CAVOK 28/11 Q1020 NOSIG

Decode

TAF

TAF EDDG 261100Z 2612/2712 07007KT CAVOK= TAF EDFH 261100Z 2612/2712 11006KT 9999 FEW045 PROB30 TEMPO 2711/2712 20015G25KT 4500 TSRAGR BKN035CB

Decode

Departure Runways

ID Width Length Bearing (true) Bearing (mag) Surface Threshold Offset Overrun Length
07 148 ft / 45 m 7,303 ft / 2,226 m 70.93° 68.80° Asphalt 151 ft / 46 m 0 ft / 0 m
25 148 ft / 45 m 7,303 ft / 2,226 m 250.96° 248.83° Asphalt 292 ft / 89 m 0 ft / 0 m

LSZH

Details ICAO LSZH (ZRH)
Name Zurich
Region Switzerland
Timezone Europe/Zurich (UTC+2.0)
Stats Elevation 1,416 ft / 432 m (AMSL)
Location 47.463489° 8.549964°
Runways 3
Magnetic Variation 2.400° E

METAR

LSZH 261620Z 32005KT 300V360 CAVOK 27/13 Q1019 NOSIG

Decode

TAF

TAF LSZH 261425Z 2615/2721 34005KT 9999 FEW060 BKN250 TX27/2615Z TN14/2704Z TX26/2715Z PROB30 TEMPO 2615/2620 03006KT BECMG 2617/2620 VRB03KT CAVOK PROB40 TEMPO 2708/2715 25010KT FEW060TCU PROB40 TEMPO 2716/2720 03006KT

Decode

Destination Runways

ID Width Length Bearing (true) Bearing (mag) Surface Threshold Offset Overrun Length
10 197 ft / 60 m 8,180 ft / 2,493 m 95.98° 93.58° Concrete 0 ft / 0 m 197 ft / 60 m
14 197 ft / 60 m 10,816 ft / 3,297 m 137.30° 134.90° Concrete 492 ft / 150 m 0 ft / 0 m
16 197 ft / 60 m 12,137 ft / 3,699 m 155.00° 152.60° Concrete 0 ft / 0 m 197 ft / 60 m
28 197 ft / 60 m 8,180 ft / 2,493 m 276.01° 273.61° Concrete 0 ft / 0 m 197 ft / 60 m
32 197 ft / 60 m 10,816 ft / 3,297 m 317.32° 314.92° Concrete 0 ft / 0 m 197 ft / 60 m
34 197 ft / 60 m 12,137 ft / 3,699 m 335.01° 332.61° Concrete 1,542 ft / 470 m 0 ft / 0 m

Approach Navaids

Runway Type Ident Frequency Range Bearing (true) Bearing (mag) Slope Elevation
14 Localiser IKL 108.30 MHz 18 nm / 33 km 137.33° 134.93° - 1,460 ft / 445 m (AMSL)
14 Glidescope IKL 108.30 MHz 10 nm / 19 km 137.31° 134.91° 3.00° 1,460 ft / 445 m (AMSL)
14 DME IKL 108.30 MHz 18 nm / 33 km - - - 1,460 ft / 445 m (AMSL)
16 Localiser IZH 110.50 MHz 18 nm / 33 km 154.99° 152.59° - 1,400 ft / 427 m (AMSL)
16 Glidescope IZH 110.50 MHz 10 nm / 19 km 155.00° 152.60° 3.00° 1,400 ft / 427 m (AMSL)
16 DME IZH 110.50 MHz 18 nm / 33 km - - - 1,400 ft / 427 m (AMSL)
28 Localiser IZW 109.75 MHz 18 nm / 33 km 276.00° 273.60° - 1,416 ft / 432 m (AMSL)
28 Glidescope IZW 109.75 MHz 10 nm / 19 km 276.86° 274.46° 3.30° 1,416 ft / 432 m (AMSL)
28 DME IZW 109.75 MHz 18 nm / 33 km - - - 1,416 ft / 432 m (AMSL)
34 Localiser IZS 110.75 MHz 18 nm / 33 km 335.06° 332.65° - 1,416 ft / 432 m (AMSL)
34 Glidescope IZS 110.75 MHz 10 nm / 19 km 335.00° 332.60° 3.30° 1,416 ft / 432 m (AMSL)
34 DME IZS 110.75 MHz 18 nm / 33 km - - - 1,410 ft / 430 m (AMSL)

Popular Alternatives